Time;durP1;ratioP1;P1;durP2;ratioP2;P2;SDS_P1;SDS_P2;PMS_P1;PMS_P2;Temp;Humidity;BMP_temperature;BMP_pressure;BME280_temperature;BME280_humidity;BME280_pressure;Samples;Min_cycle;Max_cycle;Signal;HPM_P1;HPM_P2
2023/01/07 00:01:30;;;;;;;5.03;4.50;;;10.90;99.90;;;;;;5097866;28;20279;-62
2023/01/07 00:03:58;;;;;;;7.50;5.27;;;10.90;99.90;;;;;;5100574;28;20292;-63
2023/01/07 00:06:28;;;;;;;6.20;4.93;;;10.90;99.90;;;;;;5097090;28;20198;-62
2023/01/07 00:08:56;;;;;;;7.83;5.23;;;10.90;99.90;;;;;;5098928;28;20721;-62
2023/01/07 00:11:28;;;;;;;7.97;5.13;;;10.90;99.90;;;;;;5101214;28;20339;-64
2023/01/07 00:13:56;;;;;;;5.63;4.83;;;10.90;99.90;;;;;;5098979;28;20753;-63
2023/01/07 00:16:25;;;;;;;7.90;5.00;;;10.90;99.90;;;;;;5096486;28;20321;-62
2023/01/07 00:18:53;;;;;;;6.07;4.27;;;10.90;99.90;;;;;;5093339;28;20198;-61
2023/01/07 00:21:22;;;;;;;6.27;4.77;;;10.90;99.90;;;;;;5081767;28;20197;-62
2023/01/07 00:23:56;;;;;;;5.77;4.53;;;10.90;99.90;;;;;;5098509;28;20199;-62
2023/01/07 00:26:24;;;;;;;5.37;4.73;;;10.90;99.90;;;;;;5100136;28;20224;-62
2023/01/07 00:28:52;;;;;;;7.23;4.83;;;10.90;99.90;;;;;;5098806;28;20603;-62
2023/01/07 00:31:24;;;;;;;7.03;4.87;;;10.90;99.90;;;;;;5100230;28;20208;-62
2023/01/07 00:36:24;;;;;;;6.43;5.00;;;10.90;99.90;;;;;;5101790;28;20359;-62
2023/01/07 00:38:59;;;;;;;6.77;4.40;;;10.90;99.90;;;;;;5098993;28;20199;-61
2023/01/07 00:41:26;;;;;;;8.33;4.37;;;10.90;99.90;;;;;;5100823;28;20246;-62
2023/01/07 00:43:53;;;;;;;7.63;4.77;;;10.90;99.90;;;;;;5081775;28;20542;-61
2023/01/07 00:46:20;;;;;;;6.27;4.87;;;10.90;99.90;;;;;;5098993;28;20297;-62
2023/01/07 00:48:47;;;;;;;7.40;5.17;;;10.90;99.90;;;;;;5099105;28;20234;-62
2023/01/07 00:51:15;;;;;;;5.60;4.47;;;10.90;99.90;;;;;;5099015;28;20212;-62
2023/01/07 00:53:43;;;;;;;6.43;4.03;;;10.80;99.90;;;;;;5098054;28;20629;-62
2023/01/07 00:56:11;;;;;;;4.70;3.77;;;10.80;99.90;;;;;;5098645;28;20230;-61
2023/01/07 00:58:38;;;;;;;7.73;4.83;;;10.80;99.90;;;;;;5098804;28;20227;-63
2023/01/07 01:01:04;;;;;;;4.90;4.40;;;10.80;99.90;;;;;;5094612;28;20205;-61
2023/01/07 01:03:32;;;;;;;8.40;4.30;;;10.80;99.90;;;;;;5078466;28;20618;-63
2023/01/07 01:06:10;;;;;;;8.37;4.73;;;10.80;99.90;;;;;;5097421;28;20294;-62
2023/01/07 01:08:39;;;;;;;7.30;4.57;;;10.80;99.90;;;;;;5073355;28;20351;-63
2023/01/07 01:11:07;;;;;;;10.33;4.70;;;10.70;99.90;;;;;;5095514;28;20611;-61
2023/01/07 01:13:34;;;;;;;5.00;3.80;;;10.70;99.90;;;;;;5095693;28;20291;-62
2023/01/07 01:16:06;;;;;;;6.17;4.60;;;10.70;99.90;;;;;;5096729;28;20222;-62
2023/01/07 01:18:32;;;;;;;5.23;4.00;;;10.70;99.90;;;;;;5094864;28;20657;-62
2023/01/07 01:21:05;;;;;;;5.40;4.37;;;10.70;99.90;;;;;;5098915;28;20253;-62
2023/01/07 01:23:31;;;;;;;8.83;4.03;;;10.60;99.90;;;;;;5095879;28;20279;-61
2023/01/07 01:26:04;;;;;;;5.23;4.10;;;10.70;99.90;;;;;;5098016;28;20199;-61
2023/01/07 01:28:31;;;;;;;5.37;4.03;;;10.60;99.90;;;;;;5097837;28;20241;-61
2023/01/07 01:30:58;;;;;;;7.07;4.60;;;10.60;99.90;;;;;;5098102;28;20213;-61
2023/01/07 01:33:25;;;;;;;6.07;4.77;;;10.60;99.90;;;;;;5096247;28;20290;-62
2023/01/07 01:35:52;;;;;;;4.37;3.90;;;10.60;99.90;;;;;;5097967;28;20208;-61
2023/01/07 01:38:18;;;;;;;4.53;3.83;;;10.50;99.90;;;;;;5095503;28;20210;-62
2023/01/07 01:40:45;;;;;;;5.60;3.97;;;10.50;99.90;;;;;;5099991;28;20216;-61
2023/01/07 01:43:27;;;;;;;5.97;4.53;;;10.50;99.90;;;;;;5097112;28;20213;-62
2023/01/07 01:45:55;;;;;;;12.70;4.00;;;10.50;99.90;;;;;;5081058;28;20327;-61
2023/01/07 01:48:22;;;;;;;5.67;4.77;;;10.50;99.90;;;;;;5079221;28;20290;-61
2023/01/07 01:50:50;;;;;;;8.50;4.17;;;10.50;99.90;;;;;;5098225;28;20213;-61
2023/01/07 01:53:24;;;;;;;6.33;4.07;;;10.50;99.90;;;;;;5099005;28;20198;-63
2023/01/07 01:55:57;;;;;;;6.13;3.93;;;10.50;99.90;;;;;;5098519;28;20277;-61
2023/01/07 01:58:32;;;;;;;8.50;3.90;;;10.50;99.90;;;;;;5097548;28;20233;-62
2023/01/07 02:00:59;;;;;;;5.10;3.90;;;10.40;99.90;;;;;;5098617;28;20227;-63
2023/01/07 02:03:28;;;;;;;6.33;4.03;;;10.50;99.90;;;;;;5081962;28;20219;-62
2023/01/07 02:05:55;;;;;;;7.93;4.20;;;10.50;99.90;;;;;;5095482;28;20200;-62
2023/01/07 02:08:22;;;;;;;8.37;4.53;;;10.50;99.90;;;;;;5095548;28;20211;-61
2023/01/07 02:11:21;;;;;;;5.97;4.67;;;10.50;99.90;;;;;;5095629;28;20231;-61
2023/01/07 02:14:17;;;;;;;5.30;4.00;;;10.40;99.90;;;;;;5097828;28;20215;-62
2023/01/07 02:16:47;;;;;;;5.43;3.73;;;10.50;99.90;;;;;;5046534;28;20643;-64
2023/01/07 02:19:20;;;;;;;5.77;3.60;;;10.40;99.90;;;;;;5096847;28;20200;-62
2023/01/07 02:22:14;;;;;;;6.67;4.37;;;10.40;99.90;;;;;;5097097;28;20214;-61
2023/01/07 02:25:10;;;;;;;6.27;3.70;;;10.40;99.90;;;;;;5095871;28;20621;-62
2023/01/07 02:28:15;;;;;;;8.27;3.83;;;10.40;99.90;;;;;;5097307;28;20716;-63
2023/01/07 02:31:00;;;;;;;8.23;3.87;;;10.40;99.90;;;;;;5098679;28;20199;-61
2023/01/07 02:33:36;;;;;;;4.10;3.50;;;10.40;99.90;;;;;;5081099;28;20565;-62
2023/01/07 02:36:21;;;;;;;5.83;3.97;;;10.40;99.90;;;;;;5098303;28;20297;-62
2023/01/07 02:39:00;;;;;;;5.80;3.63;;;10.40;99.90;;;;;;5095904;28;20207;-61
2023/01/07 02:41:34;;;;;;;5.67;3.40;;;10.40;99.90;;;;;;5099332;28;20299;-61
2023/01/07 02:44:10;;;;;;;7.03;3.73;;;10.40;99.90;;;;;;5096259;28;20689;-62
2023/01/07 02:46:40;;;;;;;4.07;3.17;;;10.30;99.90;;;;;;5095782;28;20274;-64
2023/01/07 02:49:09;;;;;;;7.43;3.63;;;10.40;99.90;;;;;;5097617;28;20627;-62
2023/01/07 02:51:39;;;;;;;5.73;3.47;;;10.40;99.90;;;;;;5095515;28;20196;-61
2023/01/07 02:54:12;;;;;;;5.07;3.70;;;10.30;99.90;;;;;;5096765;28;20201;-61
2023/01/07 02:57:01;;;;;;;6.00;3.67;;;10.30;99.90;;;;;;5095964;28;20212;-62
2023/01/07 02:59:55;;;;;;;3.90;3.47;;;10.30;99.90;;;;;;5076777;28;20283;-62
2023/01/07 03:02:49;;;;;;;5.93;3.43;;;10.30;99.90;;;;;;5092336;28;20200;-62
2023/01/07 03:05:27;;;;;;;6.87;3.43;;;10.40;99.90;;;;;;5094847;28;20202;-63
2023/01/07 03:08:22;;;;;;;4.53;3.60;;;10.40;99.90;;;;;;5088576;28;20295;-63
2023/01/07 03:11:04;;;;;;;7.60;3.50;;;10.40;99.90;;;;;;5090203;28;20647;-63
2023/01/07 03:13:57;;;;;;;5.77;3.33;;;10.50;99.90;;;;;;5081838;28;21199;-62
2023/01/07 03:16:56;;;;;;;7.30;4.00;;;10.50;99.90;;;;;;5059291;28;20216;-62
2023/01/07 03:19:32;;;;;;;5.93;3.37;;;10.50;99.90;;;;;;5091406;28;20414;-62
2023/01/07 03:22:03;;;;;;;7.57;3.87;;;10.50;99.90;;;;;;5093662;28;20211;-63
2023/01/07 03:24:31;;;;;;;5.70;3.27;;;10.50;99.90;;;;;;5093870;28;20617;-63
2023/01/07 03:27:02;;;;;;;6.80;3.17;;;10.50;99.90;;;;;;5095414;28;20238;-61
2023/01/07 03:29:31;;;;;;;6.80;3.47;;;10.50;99.90;;;;;;5090197;28;20213;-61
2023/01/07 03:31:57;;;;;;;5.83;3.60;;;10.50;99.90;;;;;;5094245;28;20225;-61
2023/01/07 03:34:27;;;;;;;3.17;2.60;;;10.50;99.90;;;;;;5072802;28;20206;-62
2023/01/07 03:37:00;;;;;;;5.93;3.57;;;10.50;99.90;;;;;;5091772;28;20202;-62
2023/01/07 03:39:30;;;;;;;9.20;3.87;;;10.50;99.90;;;;;;5092732;28;20186;-64
2023/01/07 03:44:43;;;;;;;7.03;4.03;;;10.50;99.90;;;;;;5091294;28;20282;-62
2023/01/07 03:47:10;;;;;;;5.40;3.40;;;10.40;99.90;;;;;;5092873;28;20709;-61
2023/01/07 03:49:39;;;;;;;7.10;3.53;;;10.40;99.90;;;;;;5094444;28;20279;-63
2023/01/07 03:52:06;;;;;;;4.93;3.10;;;10.40;99.90;;;;;;5092950;28;20540;-66
2023/01/07 03:54:33;;;;;;;5.30;3.17;;;10.50;99.90;;;;;;5092551;28;20670;-61
2023/01/07 03:56:59;;;;;;;5.27;4.27;;;10.50;99.90;;;;;;5092438;28;20201;-62
2023/01/07 03:59:26;;;;;;;6.00;3.67;;;10.50;99.90;;;;;;5090263;28;20233;-63
2023/01/07 04:01:53;;;;;;;4.63;3.13;;;10.50;99.90;;;;;;5093315;28;20632;-62
2023/01/07 04:04:20;;;;;;;5.13;3.20;;;10.50;99.90;;;;;;5095077;28;20189;-63
2023/01/07 04:06:47;;;;;;;6.83;3.63;;;10.50;99.90;;;;;;5073911;28;20210;-61
2023/01/07 04:09:14;;;;;;;6.80;4.03;;;10.60;99.90;;;;;;5090871;28;20210;-64
2023/01/07 04:11:41;;;;;;;5.50;3.33;;;10.60;99.90;;;;;;5076094;28;20230;-61
2023/01/07 04:14:07;;;;;;;5.67;3.63;;;10.60;99.90;;;;;;5070537;28;20198;-61
2023/01/07 04:16:34;;;;;;;7.97;3.63;;;10.60;99.90;;;;;;5089212;28;20551;-61
2023/01/07 04:19:01;;;;;;;7.97;3.87;;;10.60;99.90;;;;;;5089208;28;20246;-61
2023/01/07 04:21:28;;;;;;;7.40;3.57;;;10.60;99.90;;;;;;5091127;28;20389;-61
2023/01/07 04:23:55;;;;;;;4.43;3.33;;;10.60;99.90;;;;;;5090008;28;20224;-62
2023/01/07 04:26:22;;;;;;;5.20;3.20;;;10.70;99.90;;;;;;5090007;28;20216;-61
2023/01/07 04:28:49;;;;;;;3.03;2.73;;;10.70;99.90;;;;;;5070956;28;20239;-63
2023/01/07 04:31:15;;;;;;;5.97;3.43;;;10.70;99.90;;;;;;5090967;28;20203;-61
2023/01/07 04:33:42;;;;;;;5.00;2.87;;;10.70;99.90;;;;;;5090862;28;20205;-60
2023/01/07 04:36:12;;;;;;;4.87;3.17;;;10.70;99.90;;;;;;5075882;28;20216;-61
2023/01/07 04:38:38;;;;;;;5.07;2.57;;;10.70;99.90;;;;;;5089881;28;20198;-60
2023/01/07 04:41:05;;;;;;;4.33;3.17;;;10.70;99.90;;;;;;5091836;28;20252;-62
2023/01/07 04:43:32;;;;;;;7.37;2.83;;;10.70;99.90;;;;;;5090031;28;20225;-63
2023/01/07 04:45:59;;;;;;;4.20;3.20;;;10.70;99.90;;;;;;5091961;28;20259;-60
2023/01/07 04:48:26;;;;;;;5.07;3.07;;;10.70;99.90;;;;;;5089944;28;20254;-62
2023/01/07 04:50:53;;;;;;;4.53;2.57;;;10.70;99.90;;;;;;5093845;28;20545;-61
2023/01/07 04:53:20;;;;;;;4.27;3.23;;;10.70;99.90;;;;;;5088485;28;20296;-62
2023/01/07 04:55:46;;;;;;;4.50;3.30;;;10.70;99.90;;;;;;5091557;28;20212;-60
2023/01/07 04:58:13;;;;;;;5.10;2.60;;;10.70;99.90;;;;;;5089016;28;20221;-61
2023/01/07 05:00:41;;;;;;;5.90;2.90;;;10.70;99.90;;;;;;5069142;28;20266;-60
2023/01/07 05:03:08;;;;;;;3.83;2.53;;;10.70;99.90;;;;;;5093800;28;20293;-65
2023/01/07 05:05:35;;;;;;;5.43;2.97;;;10.70;99.90;;;;;;5073042;28;20212;-60
2023/01/07 05:08:01;;;;;;;5.10;2.50;;;10.80;99.90;;;;;;5090028;28;20242;-60
2023/01/07 05:10:29;;;;;;;4.50;2.60;;;10.70;99.90;;;;;;5072242;28;20676;-60
2023/01/07 05:12:55;;;;;;;3.23;2.20;;;10.70;99.90;;;;;;5070963;28;20220;-60
2023/01/07 05:15:22;;;;;;;4.23;2.23;;;10.80;99.90;;;;;;5068013;28;20703;-61
2023/01/07 05:17:49;;;;;;;3.83;2.50;;;10.80;99.90;;;;;;5088238;28;20193;-62
2023/01/07 05:20:16;;;;;;;5.37;2.30;;;10.70;99.90;;;;;;5067220;28;20198;-60
2023/01/07 05:22:43;;;;;;;4.33;2.53;;;10.70;99.90;;;;;;5091338;28;20202;-61
2023/01/07 05:25:10;;;;;;;3.37;2.20;;;10.70;99.90;;;;;;5091234;28;20667;-62
2023/01/07 05:27:37;;;;;;;4.57;2.90;;;10.80;99.90;;;;;;5088809;28;20235;-62
2023/01/07 05:30:04;;;;;;;7.10;2.37;;;10.80;99.90;;;;;;5094104;28;20200;-60
2023/01/07 05:32:31;;;;;;;5.67;2.50;;;10.70;99.90;;;;;;5096473;28;20246;-60
2023/01/07 05:34:58;;;;;;;4.00;2.33;;;10.70;99.90;;;;;;5078840;28;20244;-62
2023/01/07 05:37:25;;;;;;;4.87;2.47;;;10.80;99.90;;;;;;5090397;28;20336;-61
2023/01/07 05:39:51;;;;;;;4.83;2.60;;;10.80;99.90;;;;;;5074042;28;20636;-61
2023/01/07 05:42:18;;;;;;;4.90;2.77;;;10.80;99.90;;;;;;5093054;28;20257;-61
2023/01/07 05:44:45;;;;;;;3.73;2.53;;;10.70;99.90;;;;;;5096299;28;20293;-61
2023/01/07 05:47:12;;;;;;;3.53;2.57;;;10.70;99.90;;;;;;5097930;28;20355;-61
2023/01/07 05:49:38;;;;;;;2.47;2.17;;;10.70;99.90;;;;;;5079095;28;20653;-62
2023/01/07 05:52:05;;;;;;;3.23;2.70;;;10.70;99.90;;;;;;5095841;28;20218;-61
2023/01/07 05:54:32;;;;;;;6.13;3.13;;;10.70;99.90;;;;;;5098933;28;20580;-62
2023/01/07 05:56:59;;;;;;;5.20;2.93;;;10.70;99.90;;;;;;5097190;28;20216;-62
2023/01/07 05:59:26;;;;;;;4.43;2.30;;;10.70;99.90;;;;;;5078451;28;20232;-62
2023/01/07 06:01:52;;;;;;;2.77;2.23;;;10.70;99.90;;;;;;5097862;28;20232;-61
2023/01/07 06:04:19;;;;;;;2.73;2.20;;;10.70;99.90;;;;;;5099558;28;20209;-62
2023/01/07 06:06:46;;;;;;;3.37;2.27;;;10.70;99.90;;;;;;5096690;28;20207;-63
2023/01/07 06:09:13;;;;;;;4.07;2.20;;;10.70;99.90;;;;;;5096230;28;20201;-61
2023/01/07 06:11:39;;;;;;;1.97;1.63;;;10.60;99.90;;;;;;5097549;28;20254;-61
2023/01/07 06:14:06;;;;;;;3.10;1.70;;;10.60;99.90;;;;;;5097008;28;20660;-60
2023/01/07 06:16:33;;;;;;;4.37;2.20;;;10.70;99.90;;;;;;5097346;28;20217;-61
2023/01/07 06:19:00;;;;;;;2.67;1.70;;;10.60;99.90;;;;;;5095400;28;20194;-61
2023/01/07 06:21:27;;;;;;;1.83;1.60;;;10.60;99.90;;;;;;5098807;28;20207;-61
2023/01/07 06:23:54;;;;;;;3.03;1.87;;;10.70;99.90;;;;;;5078239;28;20198;-61
2023/01/07 06:26:21;;;;;;;2.10;1.60;;;10.60;99.90;;;;;;5096601;28;20218;-61
2023/01/07 06:28:50;;;;;;;3.27;1.83;;;10.60;99.90;;;;;;5094460;28;20253;-62
2023/01/07 06:31:17;;;;;;;3.93;1.70;;;10.70;99.90;;;;;;5076194;28;20203;-61
2023/01/07 06:33:44;;;;;;;3.13;1.73;;;10.70;99.90;;;;;;5090823;28;20251;-61
2023/01/07 06:36:11;;;;;;;2.13;1.60;;;10.70;99.90;;;;;;5092594;28;20226;-62
2023/01/07 06:38:38;;;;;;;13.43;1.97;;;10.70;99.90;;;;;;5095461;28;20205;-61
2023/01/07 06:41:04;;;;;;;2.83;1.63;;;10.70;99.90;;;;;;5095383;28;20549;-61
2023/01/07 06:43:31;;;;;;;4.70;1.63;;;10.70;99.90;;;;;;5089363;28;20200;-61
2023/01/07 06:45:58;;;;;;;2.80;1.50;;;10.70;99.90;;;;;;5099112;28;20237;-62
2023/01/07 06:48:25;;;;;;;2.10;1.90;;;10.70;99.90;;;;;;5096682;28;20653;-61
2023/01/07 06:50:52;;;;;;;2.23;1.37;;;10.70;99.90;;;;;;5099031;28;20241;-61
2023/01/07 06:53:19;;;;;;;2.03;1.40;;;10.70;99.90;;;;;;5099017;28;20243;-61
2023/01/07 06:55:49;;;;;;;3.23;1.33;;;10.70;99.90;;;;;;5102164;28;20273;-62
2023/01/07 06:58:16;;;;;;;1.93;1.13;;;10.70;99.90;;;;;;5101793;28;20224;-63
2023/01/07 07:00:43;;;;;;;1.67;1.10;;;10.70;99.90;;;;;;5075897;28;20203;-61
2023/01/07 07:03:10;;;;;;;1.47;1.20;;;10.60;99.90;;;;;;5103422;28;20570;-64
2023/01/07 07:05:37;;;;;;;1.37;1.10;;;10.60;99.90;;;;;;5099536;28;20195;-61
2023/01/07 07:08:05;;;;;;;1.10;1.00;;;10.60;99.90;;;;;;5083008;28;20250;-62
2023/01/07 07:10:32;;;;;;;1.93;1.17;;;10.60;99.90;;;;;;5101994;28;20315;-62
2023/01/07 07:12:59;;;;;;;2.80;1.40;;;10.60;99.90;;;;;;5084804;28;20652;-61
2023/01/07 07:15:25;;;;;;;1.97;1.27;;;10.60;99.90;;;;;;5101735;28;20232;-61
2023/01/07 07:17:52;;;;;;;3.03;1.20;;;10.60;99.90;;;;;;5083329;28;20328;-61
2023/01/07 07:20:19;;;;;;;1.43;1.33;;;10.60;99.90;;;;;;5101348;28;20212;-61
2023/01/07 07:22:47;;;;;;;3.77;1.37;;;10.50;99.90;;;;;;5100250;28;20240;-61
2023/01/07 07:25:14;;;;;;;1.93;1.33;;;10.50;99.90;;;;;;5084026;28;20204;-61
2023/01/07 07:27:44;;;;;;;2.30;1.10;;;10.50;99.90;;;;;;5100863;28;20233;-61
2023/01/07 07:30:13;;;;;;;1.40;1.20;;;10.50;99.90;;;;;;5101161;28;20230;-62
2023/01/07 07:32:41;;;;;;;2.80;1.20;;;10.50;99.90;;;;;;5101194;28;20218;-64
2023/01/07 07:35:09;;;;;;;2.50;1.30;;;10.50;99.90;;;;;;5083250;28;20653;-62
2023/01/07 07:37:36;;;;;;;2.13;1.17;;;10.40;99.90;;;;;;5100194;28;20216;-62
2023/01/07 07:40:04;;;;;;;1.90;1.03;;;10.40;99.90;;;;;;5082622;28;20196;-62
2023/01/07 07:42:31;;;;;;;1.23;1.13;;;10.40;99.90;;;;;;5093736;28;20320;-62
2023/01/07 07:45:18;;;;;;;1.87;1.17;;;10.40;99.90;;;;;;5100256;28;20222;-62
2023/01/07 07:47:45;;;;;;;3.90;1.03;;;10.40;99.90;;;;;;5082620;28;20211;-60
2023/01/07 07:50:12;;;;;;;4.73;1.20;;;10.50;99.90;;;;;;5102436;28;20240;-61
2023/01/07 07:52:39;;;;;;;1.67;1.07;;;10.50;99.90;;;;;;5101711;28;20649;-62
2023/01/07 07:55:07;;;;;;;1.50;1.00;;;10.50;99.90;;;;;;5096735;28;20702;-61
2023/01/07 07:57:55;;;;;;;2.90;1.23;;;10.50;99.90;;;;;;5099228;28;22984;-61
2023/01/07 08:00:23;;;;;;;3.73;1.10;;;10.50;99.90;;;;;;5100020;28;20203;-61
2023/01/07 08:02:50;;;;;;;3.73;1.30;;;10.50;99.90;;;;;;5093156;28;20193;-61
2023/01/07 08:05:17;;;;;;;1.13;0.90;;;10.50;99.90;;;;;;5093201;28;20306;-61
2023/01/07 08:07:44;;;;;;;1.10;1.00;;;10.60;99.90;;;;;;5092937;28;20614;-62
2023/01/07 08:10:11;;;;;;;1.33;1.10;;;10.60;99.90;;;;;;5094806;28;20236;-61
2023/01/07 08:12:38;;;;;;;1.20;1.10;;;10.60;99.90;;;;;;5090280;28;20207;-62
2023/01/07 08:15:06;;;;;;;1.70;1.10;;;10.60;99.90;;;;;;5068594;28;20571;-62
2023/01/07 08:17:35;;;;;;;2.87;1.20;;;10.50;99.90;;;;;;5091727;28;21149;-63
2023/01/07 08:20:03;;;;;;;1.53;1.00;;;10.50;99.90;;;;;;5096380;28;20212;-63
2023/01/07 08:22:30;;;;;;;1.90;1.27;;;10.50;99.90;;;;;;4721587;28;9999743;-62
2023/01/07 08:24:57;;;;;;;0.60;0.60;;;10.50;99.90;;;;;;5061901;28;20207;-61
2023/01/07 08:27:26;;;;;;;1.30;0.90;;;10.50;99.90;;;;;;5089776;28;20209;-61
2023/01/07 08:29:54;;;;;;;2.17;1.00;;;10.50;99.90;;;;;;5087022;28;20301;-61
2023/01/07 08:32:21;;;;;;;1.80;1.00;;;10.50;99.90;;;;;;5068990;28;20245;-61
2023/01/07 08:34:48;;;;;;;1.47;0.90;;;10.60;99.90;;;;;;5067715;28;20250;-60
2023/01/07 08:37:15;;;;;;;1.93;1.20;;;10.50;99.90;;;;;;5087138;28;20307;-60
2023/01/07 08:39:42;;;;;;;1.10;1.00;;;10.60;99.90;;;;;;5083606;28;20198;-62
2023/01/07 08:42:09;;;;;;;1.60;1.00;;;10.60;99.90;;;;;;5086714;28;20214;-60
2023/01/07 08:44:35;;;;;;;2.73;1.30;;;10.60;99.90;;;;;;5088944;28;20201;-60
2023/01/07 08:47:02;;;;;;;1.23;0.90;;;10.70;99.90;;;;;;5088988;28;21882;-61
2023/01/07 08:49:29;;;;;;;3.17;0.97;;;10.70;99.90;;;;;;5085566;28;20193;-59
2023/01/07 08:51:56;;;;;;;6.43;1.40;;;10.70;99.90;;;;;;5065145;28;20664;-60
2023/01/07 08:54:22;;;;;;;1.27;0.90;;;10.70;99.90;;;;;;5075756;28;20644;-60
2023/01/07 08:56:49;;;;;;;2.40;1.07;;;10.70;99.90;;;;;;5084245;28;20219;-59
2023/01/07 08:59:16;;;;;;;2.07;1.10;;;10.80;99.90;;;;;;5086692;28;20192;-60
2023/01/07 09:01:43;;;;;;;1.50;1.00;;;10.80;99.90;;;;;;5070576;28;20780;-61
2023/01/07 09:04:10;;;;;;;2.27;0.97;;;10.80;99.90;;;;;;5078644;28;20285;-61
2023/01/07 09:06:36;;;;;;;1.10;0.93;;;10.80;99.90;;;;;;5080183;28;20210;-61
2023/01/07 09:09:03;;;;;;;1.50;1.00;;;10.80;99.90;;;;;;5092980;28;20652;-61
2023/01/07 09:11:31;;;;;;;2.73;0.87;;;10.90;99.90;;;;;;5091793;28;20673;-62
2023/01/07 09:13:57;;;;;;;1.47;0.83;;;10.90;99.90;;;;;;5089684;28;20194;-61
2023/01/07 09:16:24;;;;;;;5.10;1.10;;;10.90;99.90;;;;;;5093488;28;20363;-60
2023/01/07 09:18:51;;;;;;;1.93;0.93;;;10.90;99.90;;;;;;5090140;28;20198;-59
2023/01/07 09:21:18;;;;;;;1.10;0.90;;;10.90;99.90;;;;;;5070945;28;20212;-59
2023/01/07 09:23:45;;;;;;;0.80;0.80;;;10.90;99.90;;;;;;5088472;28;20592;-60
2023/01/07 09:26:11;;;;;;;2.50;1.07;;;10.90;99.90;;;;;;5091211;28;20665;-62
2023/01/07 09:28:38;;;;;;;1.60;0.90;;;10.90;99.90;;;;;;5083541;28;20453;-59
2023/01/07 09:31:05;;;;;;;1.03;0.80;;;10.90;99.90;;;;;;5096964;28;20250;-61
2023/01/07 09:33:32;;;;;;;1.73;0.93;;;11.00;99.90;;;;;;5086533;28;20312;-59
2023/01/07 09:35:59;;;;;;;1.03;0.80;;;11.00;99.90;;;;;;5090230;28;21063;-60
2023/01/07 09:38:26;;;;;;;1.47;1.10;;;11.00;99.90;;;;;;5077517;28;20627;-61
2023/01/07 09:40:55;;;;;;;1.70;0.93;;;11.00;99.90;;;;;;5085898;28;20212;-60
2023/01/07 09:43:40;;;;;;;2.87;1.10;;;11.00;99.90;;;;;;5083136;28;20202;-60
2023/01/07 09:46:28;;;;;;;0.87;0.70;;;11.10;99.90;;;;;;5081792;28;20257;-63
2023/01/07 09:49:00;;;;;;;2.93;0.93;;;11.00;99.90;;;;;;5088616;28;20215;-60
2023/01/07 09:51:40;;;;;;;0.60;0.60;;;11.10;99.90;;;;;;5082238;28;20873;-60
2023/01/07 09:54:32;;;;;;;0.93;0.63;;;11.10;99.90;;;;;;5094449;28;20201;-61
2023/01/07 09:56:59;;;;;;;1.73;0.70;;;11.20;99.90;;;;;;5089875;28;20214;-60
2023/01/07 09:59:26;;;;;;;2.70;0.70;;;11.20;99.90;;;;;;5087798;28;20199;-61
2023/01/07 10:02:13;;;;;;;1.40;0.70;;;11.20;99.90;;;;;;5092395;28;20575;-60
2023/01/07 10:04:48;;;;;;;2.17;0.80;;;11.30;99.90;;;;;;5091581;28;20225;-60
2023/01/07 10:07:20;;;;;;;1.13;0.80;;;11.30;99.90;;;;;;5069614;28;20195;-60
2023/01/07 10:09:53;;;;;;;0.80;0.57;;;11.30;99.90;;;;;;5081858;28;20205;-61
2023/01/07 10:12:23;;;;;;;0.80;0.67;;;11.40;99.90;;;;;;5084082;28;20681;-61
2023/01/07 10:15:08;;;;;;;1.67;1.00;;;11.70;99.90;;;;;;5084436;28;20198;-60
2023/01/07 10:17:59;;;;;;;1.43;0.70;;;11.90;99.90;;;;;;5082732;28;20611;-62
2023/01/07 10:20:50;;;;;;;1.30;0.73;;;12.00;99.90;;;;;;5080789;28;20217;-65
2023/01/07 10:23:27;;;;;;;1.20;0.70;;;12.10;99.90;;;;;;5061783;28;20217;-61
2023/01/07 10:25:57;;;;;;;1.33;0.70;;;12.10;99.90;;;;;;5081951;28;20203;-62
2023/01/07 10:28:49;;;;;;;0.53;0.43;;;12.00;99.90;;;;;;5063198;28;20251;-61
2023/01/07 10:31:19;;;;;;;0.77;0.70;;;12.10;99.90;;;;;;5083590;28;20199;-61
2023/01/07 10:33:50;;;;;;;0.73;0.70;;;12.10;99.90;;;;;;5086624;28;20200;-60
2023/01/07 10:36:27;;;;;;;0.93;0.60;;;12.00;99.90;;;;;;5085222;28;20205;-60
2023/01/07 10:39:12;;;;;;;0.80;0.80;;;12.10;99.90;;;;;;5081937;28;20190;-62
2023/01/07 10:42:00;;;;;;;0.87;0.60;;;12.00;99.90;;;;;;5085950;28;20201;-60
2023/01/07 10:45:00;;;;;;;0.73;0.60;;;12.10;99.90;;;;;;5074897;28;20284;-61
2023/01/07 10:47:42;;;;;;;0.57;0.50;;;12.10;99.90;;;;;;5083429;28;20247;-62
2023/01/07 10:50:30;;;;;;;1.07;0.67;;;12.10;99.90;;;;;;5083042;28;20213;-62
2023/01/07 10:53:11;;;;;;;0.53;0.50;;;12.00;99.90;;;;;;5086784;28;20222;-61
2023/01/07 10:56:02;;;;;;;2.13;0.80;;;12.10;99.90;;;;;;5088674;28;20208;-60
2023/01/07 10:58:36;;;;;;;1.47;0.83;;;12.10;99.90;;;;;;5084514;28;20316;-62
2023/01/07 11:01:04;;;;;;;1.50;0.90;;;12.20;99.90;;;;;;5087069;28;20229;-60
2023/01/07 11:03:32;;;;;;;1.10;0.70;;;12.40;99.90;;;;;;5094724;28;20223;-60
2023/01/07 11:06:07;;;;;;;0.80;0.50;;;12.40;99.90;;;;;;5080238;28;20205;-60
2023/01/07 11:08:40;;;;;;;0.57;0.53;;;12.20;99.90;;;;;;5065848;28;20541;-61
2023/01/07 11:11:15;;;;;;;0.50;0.50;;;12.10;99.90;;;;;;5085871;28;20309;-60
2023/01/07 11:13:50;;;;;;;1.00;0.60;;;12.20;99.90;;;;;;5084343;28;20667;-60
2023/01/07 11:16:24;;;;;;;1.27;0.60;;;12.20;99.90;;;;;;5085636;28;20198;-60
2023/01/07 11:19:06;;;;;;;0.80;0.60;;;12.20;99.90;;;;;;5077375;28;20785;-61
2023/01/07 11:21:37;;;;;;;1.80;0.70;;;12.20;99.90;;;;;;5078541;28;20689;-61
2023/01/07 11:24:18;;;;;;;0.83;0.70;;;12.20;99.90;;;;;;5082930;28;20203;-60
2023/01/07 11:26:45;;;;;;;2.40;0.80;;;12.30;99.90;;;;;;5062727;28;20210;-61
2023/01/07 11:29:23;;;;;;;0.60;0.50;;;12.30;99.90;;;;;;5075663;28;20207;-60
2023/01/07 11:31:55;;;;;;;1.60;0.90;;;12.30;99.90;;;;;;5080061;28;20292;-61
2023/01/07 11:34:46;;;;;;;0.83;0.83;;;12.30;99.90;;;;;;5055354;28;20867;-61
2023/01/07 11:37:35;;;;;;;1.83;0.70;;;12.30;99.90;;;;;;5074072;28;20211;-60
2023/01/07 11:40:13;;;;;;;0.77;0.70;;;12.30;99.90;;;;;;5082823;28;20219;-62
2023/01/07 11:42:58;;;;;;;1.63;0.80;;;12.30;99.90;;;;;;5061639;28;20211;-60
2023/01/07 11:45:35;;;;;;;1.17;0.70;;;12.40;99.90;;;;;;5092916;28;20298;-60
2023/01/07 11:48:16;;;;;;;1.07;0.70;;;12.50;99.90;;;;;;5086426;28;20199;-60
2023/01/07 11:51:01;;;;;;;0.70;0.67;;;12.50;99.90;;;;;;5062061;28;20308;-64
2023/01/07 11:53:36;;;;;;;3.10;1.00;;;12.70;99.90;;;;;;5059432;28;21090;-60
2023/01/07 11:56:06;;;;;;;0.70;0.70;;;12.90;99.90;;;;;;5091351;28;20230;-62
2023/01/07 11:58:39;;;;;;;1.10;0.80;;;13.00;99.90;;;;;;5067641;28;20244;-62
2023/01/07 12:01:09;;;;;;;1.53;1.03;;;12.70;99.90;;;;;;5088451;28;20635;-60
2023/01/07 12:03:39;;;;;;;1.10;0.70;;;12.80;99.90;;;;;;5092587;28;20569;-60
2023/01/07 12:06:22;;;;;;;1.60;0.73;;;13.00;99.90;;;;;;5094928;28;20290;-64
2023/01/07 12:09:15;;;;;;;1.10;0.80;;;12.80;99.90;;;;;;5091201;28;20216;-60
2023/01/07 12:11:43;;;;;;;0.70;0.70;;;12.80;99.90;;;;;;5081196;28;20234;-62
2023/01/07 12:14:32;;;;;;;2.70;0.83;;;12.40;99.90;;;;;;5092795;28;20289;-60
2023/01/07 12:17:27;;;;;;;1.50;0.90;;;12.40;99.90;;;;;;5068685;28;20223;-60
2023/01/07 12:20:18;;;;;;;1.00;0.90;;;12.20;99.90;;;;;;5089512;28;20298;-60
2023/01/07 12:23:37;;;;;;;1.13;0.80;;;12.20;99.90;;;;;;5093022;28;20437;-60
2023/01/07 12:26:23;;;;;;;0.97;0.80;;;12.40;99.90;;;;;;5047202;28;20217;-60
2023/01/07 12:29:24;;;;;;;1.13;1.03;;;12.60;99.90;;;;;;5082508;28;20242;-61
2023/01/07 12:32:11;;;;;;;0.83;0.70;;;12.50;99.90;;;;;;5070244;28;20738;-61
2023/01/07 12:35:11;;;;;;;1.03;0.80;;;12.60;99.90;;;;;;5083906;28;20208;-62
2023/01/07 12:37:48;;;;;;;0.90;0.80;;;12.90;99.90;;;;;;5059601;28;20670;-63
2023/01/07 12:40:30;;;;;;;1.40;0.80;;;12.80;99.90;;;;;;5063956;28;20199;-63
2023/01/07 12:43:27;;;;;;;0.70;0.60;;;12.90;99.90;;;;;;5096577;28;20670;-59
2023/01/07 12:45:59;;;;;;;0.80;0.70;;;13.00;99.90;;;;;;5062547;28;20707;-59
2023/01/07 12:48:40;;;;;;;1.97;1.13;;;12.80;99.90;;;;;;5095924;28;20194;-60
2023/01/07 12:51:21;;;;;;;1.93;1.17;;;12.70;99.90;;;;;;5096467;28;20248;-60
2023/01/07 12:53:58;;;;;;;1.20;0.93;;;12.60;99.90;;;;;;5078672;28;20207;-61
2023/01/07 12:56:38;;;;;;;1.13;1.00;;;12.70;99.90;;;;;;5084175;28;20199;-60
2023/01/07 12:59:20;;;;;;;1.27;0.93;;;12.70;99.90;;;;;;5072306;28;20310;-60
2023/01/07 13:02:43;;;;;;;0.80;0.80;;;12.50;99.90;;;;;;5065806;28;20217;-59
2023/01/07 13:05:20;;;;;;;1.03;0.80;;;12.40;99.90;;;;;;5092406;28;20218;-59
2023/01/07 13:08:06;;;;;;;1.13;0.90;;;12.30;99.90;;;;;;5088216;28;20197;-60
2023/01/07 13:10:35;;;;;;;1.20;1.00;;;12.30;99.90;;;;;;5086204;28;20238;-61
2023/01/07 13:13:11;;;;;;;1.30;1.00;;;12.20;99.90;;;;;;5089049;28;20305;-60
2023/01/07 13:15:40;;;;;;;2.23;1.20;;;12.10;99.90;;;;;;5088978;28;20288;-60
2023/01/07 13:18:15;;;;;;;1.23;0.90;;;12.00;99.90;;;;;;5082159;28;20994;-61